Seahurst, WA (98062)

11:13 AM PST on February 10, 2016 (GMT -0800)
Seahurst | | Change Station
CLOSE
Current Station
Personal Weather Station
Location: Burien, WA
Elevation: 364 ft
Nearby Weather Stations

Elev 364 ft 47.47 °N, 122.36 °W | Updated 14 minutes ago

Rain
Rain
48.4 °F
Feels Like 48 °F
N
0.0
Wind Variable Wind from NNE

Today
High -- | Low -- °F
--% Chance of Precip.
Yesterday
High -- | Low -- °F
Precip. -- in
Pressure 30.25 in
Visibility 7.0 miles
Clouds Mostly Cloudy 4200 ft
Overcast 5000 ft
Windchill 48 °F
Dew Point 48 °F
Humidity 99%
Rainfall 0.08 in
Snow Depth Not available.
7:23 AM 5:24 PM
Waxing Crescent, 6% visible
METAR KSEA 101853Z 18005KT 7SM RA BKN042 OVC050 09/08 A3022 RMK AO2 SLP242 P0010 T00940078
Pressure 30.25 in
Visibility 7.0 miles
Clouds Mostly Cloudy 4200 ft
Overcast 5000 ft
Windchill 48 °F
Dew Point 48 °F
Humidity 99%
Rainfall 0.08 in
Snow Depth Not available.
7:23 AM 5:24 PM
Waxing Crescent, 6% visible
METAR KSEA 101853Z 18005KT 7SM RA BKN042 OVC050 09/08 A3022 RMK AO2 SLP242 P0010 T00940078

10-Day Weather Forecast

Almanac

Astronomy

Feb. 10, 2016 Rise Set
Actual Time
Civil Twilight
Nautical Twilight
Astronomical Twilight
Moon
Length of Visible Light
Length of Day
Tomorrow will be .
, % of the Moon is Illuminated

Today's Extremes

State Highs State Lows

Community

WunderPhotos

Upload Photos

1,891,922 photos uploaded!

WunderBlog® & News

Nearby

Air Quality

  Air Quality AQ Index Pollutant
Not available.

Snow Depth

Station Depth Elevation

Earthquake Activity

City Distance Mag. Time & Date
Minimum magnitude displayed is 2.5.

Coastal Water Temperatures

Place Temperature

Stations

Nearby Weather Stations

Station Location Temp. Windchill Dew Point Humidity Wind Precip. Elev Updated Type
                   

Watches & Warnings

There are currently no watches in effect.